sensor_id;sensor_type;location;lat;lon;timestamp;P1;durP1;ratioP1;P2;durP2;ratioP2
8909;SDS011;4490;49.072;8.804;2023-07-02T00:01:09;5.53;;;4.70;;
8909;SDS011;4490;49.072;8.804;2023-07-02T00:03:37;4.80;;;4.40;;
8909;SDS011;4490;49.072;8.804;2023-07-02T00:06:03;4.97;;;4.47;;
8909;SDS011;4490;49.072;8.804;2023-07-02T00:08:29;5.40;;;4.90;;
8909;SDS011;4490;49.072;8.804;2023-07-02T00:10:54;5.07;;;4.30;;
8909;SDS011;4490;49.072;8.804;2023-07-02T00:13:20;5.77;;;4.40;;
8909;SDS011;4490;49.072;8.804;2023-07-02T00:15:45;5.27;;;4.73;;
8909;SDS011;4490;49.072;8.804;2023-07-02T00:18:11;7.17;;;4.67;;
8909;SDS011;4490;49.072;8.804;2023-07-02T00:20:41;5.23;;;4.77;;
8909;SDS011;4490;49.072;8.804;2023-07-02T00:23:07;5.87;;;4.23;;
8909;SDS011;4490;49.072;8.804;2023-07-02T00:25:38;5.27;;;4.77;;
8909;SDS011;4490;49.072;8.804;2023-07-02T00:28:03;11.70;;;4.83;;
8909;SDS011;4490;49.072;8.804;2023-07-02T00:30:29;7.50;;;4.50;;
8909;SDS011;4490;49.072;8.804;2023-07-02T00:32:55;4.97;;;4.50;;
8909;SDS011;4490;49.072;8.804;2023-07-02T00:35:21;5.30;;;4.90;;
8909;SDS011;4490;49.072;8.804;2023-07-02T00:37:46;5.33;;;4.83;;
8909;SDS011;4490;49.072;8.804;2023-07-02T00:40:12;7.00;;;5.00;;
8909;SDS011;4490;49.072;8.804;2023-07-02T00:42:38;5.03;;;4.60;;
8909;SDS011;4490;49.072;8.804;2023-07-02T00:45:04;5.23;;;4.77;;
8909;SDS011;4490;49.072;8.804;2023-07-02T00:47:33;5.33;;;4.80;;
8909;SDS011;4490;49.072;8.804;2023-07-02T00:50:00;5.13;;;4.63;;
8909;SDS011;4490;49.072;8.804;2023-07-02T00:52:26;5.10;;;4.70;;
8909;SDS011;4490;49.072;8.804;2023-07-02T00:54:52;5.17;;;4.53;;
8909;SDS011;4490;49.072;8.804;2023-07-02T00:57:18;5.00;;;4.60;;
8909;SDS011;4490;49.072;8.804;2023-07-02T00:59:44;5.63;;;4.57;;
8909;SDS011;4490;49.072;8.804;2023-07-02T01:02:10;5.30;;;4.70;;
8909;SDS011;4490;49.072;8.804;2023-07-02T01:04:38;6.23;;;4.43;;
8909;SDS011;4490;49.072;8.804;2023-07-02T01:07:06;5.10;;;4.50;;
8909;SDS011;4490;49.072;8.804;2023-07-02T01:09:35;4.73;;;4.20;;
8909;SDS011;4490;49.072;8.804;2023-07-02T01:12:05;4.63;;;4.10;;
8909;SDS011;4490;49.072;8.804;2023-07-02T01:14:37;6.40;;;4.30;;
8909;SDS011;4490;49.072;8.804;2023-07-02T01:17:05;5.90;;;5.10;;
8909;SDS011;4490;49.072;8.804;2023-07-02T01:19:42;6.23;;;4.67;;
8909;SDS011;4490;49.072;8.804;2023-07-02T01:22:11;5.33;;;4.83;;
8909;SDS011;4490;49.072;8.804;2023-07-02T01:24:40;4.87;;;4.37;;
8909;SDS011;4490;49.072;8.804;2023-07-02T01:27:07;6.30;;;4.80;;
8909;SDS011;4490;49.072;8.804;2023-07-02T01:29:32;6.37;;;4.57;;
8909;SDS011;4490;49.072;8.804;2023-07-02T01:32:01;5.67;;;4.30;;
8909;SDS011;4490;49.072;8.804;2023-07-02T01:34:27;4.73;;;4.33;;
8909;SDS011;4490;49.072;8.804;2023-07-02T01:36:52;5.93;;;4.33;;
8909;SDS011;4490;49.072;8.804;2023-07-02T01:39:18;6.37;;;4.47;;
8909;SDS011;4490;49.072;8.804;2023-07-02T01:41:54;7.53;;;4.67;;
8909;SDS011;4490;49.072;8.804;2023-07-02T01:44:21;4.73;;;4.23;;
8909;SDS011;4490;49.072;8.804;2023-07-02T01:46:48;6.23;;;4.63;;
8909;SDS011;4490;49.072;8.804;2023-07-02T01:49:17;6.87;;;4.30;;
8909;SDS011;4490;49.072;8.804;2023-07-02T01:51:44;9.33;;;4.97;;
8909;SDS011;4490;49.072;8.804;2023-07-02T01:54:13;4.67;;;4.27;;
8909;SDS011;4490;49.072;8.804;2023-07-02T01:56:39;8.40;;;4.70;;
8909;SDS011;4490;49.072;8.804;2023-07-02T01:59:04;6.47;;;4.40;;
8909;SDS011;4490;49.072;8.804;2023-07-02T02:01:30;5.43;;;4.67;;
8909;SDS011;4490;49.072;8.804;2023-07-02T02:03:57;8.90;;;4.97;;
8909;SDS011;4490;49.072;8.804;2023-07-02T02:06:23;6.93;;;4.43;;
8909;SDS011;4490;49.072;8.804;2023-07-02T02:08:48;7.10;;;4.60;;
8909;SDS011;4490;49.072;8.804;2023-07-02T02:11:14;5.20;;;4.70;;
8909;SDS011;4490;49.072;8.804;2023-07-02T02:13:39;8.77;;;4.90;;
8909;SDS011;4490;49.072;8.804;2023-07-02T02:16:05;5.20;;;4.70;;
8909;SDS011;4490;49.072;8.804;2023-07-02T02:18:30;7.23;;;5.37;;
8909;SDS011;4490;49.072;8.804;2023-07-02T02:20:56;5.67;;;5.00;;
8909;SDS011;4490;49.072;8.804;2023-07-02T02:23:22;6.83;;;4.87;;
8909;SDS011;4490;49.072;8.804;2023-07-02T02:25:47;8.20;;;4.90;;
8909;SDS011;4490;49.072;8.804;2023-07-02T02:28:13;8.93;;;4.70;;
8909;SDS011;4490;49.072;8.804;2023-07-02T02:30:38;8.60;;;4.80;;
8909;SDS011;4490;49.072;8.804;2023-07-02T02:33:04;9.70;;;4.83;;
8909;SDS011;4490;49.072;8.804;2023-07-02T02:35:29;6.83;;;4.20;;
8909;SDS011;4490;49.072;8.804;2023-07-02T02:37:55;8.93;;;4.60;;
8909;SDS011;4490;49.072;8.804;2023-07-02T02:40:20;4.93;;;4.40;;
8909;SDS011;4490;49.072;8.804;2023-07-02T02:42:46;7.97;;;4.70;;
8909;SDS011;4490;49.072;8.804;2023-07-02T02:45:12;7.50;;;4.47;;
8909;SDS011;4490;49.072;8.804;2023-07-02T02:47:37;8.27;;;5.10;;
8909;SDS011;4490;49.072;8.804;2023-07-02T02:50:03;8.60;;;5.10;;
8909;SDS011;4490;49.072;8.804;2023-07-02T02:52:30;9.83;;;5.00;;
8909;SDS011;4490;49.072;8.804;2023-07-02T02:54:56;10.90;;;5.60;;
8909;SDS011;4490;49.072;8.804;2023-07-02T02:57:21;10.47;;;5.70;;
8909;SDS011;4490;49.072;8.804;2023-07-02T02:59:47;10.33;;;5.93;;
8909;SDS011;4490;49.072;8.804;2023-07-02T03:02:16;13.93;;;5.80;;
8909;SDS011;4490;49.072;8.804;2023-07-02T03:04:41;9.80;;;5.70;;
8909;SDS011;4490;49.072;8.804;2023-07-02T03:07:09;10.33;;;6.53;;
8909;SDS011;4490;49.072;8.804;2023-07-02T03:09:35;10.27;;;6.00;;
8909;SDS011;4490;49.072;8.804;2023-07-02T03:12:01;10.33;;;6.17;;
8909;SDS011;4490;49.072;8.804;2023-07-02T03:14:26;11.77;;;6.33;;
8909;SDS011;4490;49.072;8.804;2023-07-02T03:16:52;10.50;;;6.37;;
8909;SDS011;4490;49.072;8.804;2023-07-02T03:19:17;8.47;;;6.40;;
8909;SDS011;4490;49.072;8.804;2023-07-02T03:21:43;12.00;;;6.40;;
8909;SDS011;4490;49.072;8.804;2023-07-02T03:24:09;12.67;;;6.90;;
8909;SDS011;4490;49.072;8.804;2023-07-02T03:26:39;9.47;;;6.60;;
8909;SDS011;4490;49.072;8.804;2023-07-02T03:29:05;8.97;;;6.53;;
8909;SDS011;4490;49.072;8.804;2023-07-02T03:31:31;13.37;;;6.83;;
8909;SDS011;4490;49.072;8.804;2023-07-02T03:33:57;13.90;;;7.43;;
8909;SDS011;4490;49.072;8.804;2023-07-02T03:36:23;11.10;;;7.20;;
8909;SDS011;4490;49.072;8.804;2023-07-02T03:38:48;16.80;;;6.63;;
8909;SDS011;4490;49.072;8.804;2023-07-02T03:41:14;11.77;;;6.60;;
8909;SDS011;4490;49.072;8.804;2023-07-02T03:43:39;12.10;;;6.30;;
8909;SDS011;4490;49.072;8.804;2023-07-02T03:46:05;9.83;;;6.00;;
8909;SDS011;4490;49.072;8.804;2023-07-02T03:48:31;13.33;;;6.23;;
8909;SDS011;4490;49.072;8.804;2023-07-02T03:50:56;11.57;;;6.70;;
8909;SDS011;4490;49.072;8.804;2023-07-02T03:53:22;10.47;;;5.90;;
8909;SDS011;4490;49.072;8.804;2023-07-02T03:55:47;11.33;;;5.90;;
8909;SDS011;4490;49.072;8.804;2023-07-02T03:58:13;11.07;;;5.70;;
8909;SDS011;4490;49.072;8.804;2023-07-02T04:00:38;8.40;;;5.77;;
8909;SDS011;4490;49.072;8.804;2023-07-02T04:03:05;9.53;;;6.00;;
8909;SDS011;4490;49.072;8.804;2023-07-02T04:05:30;10.90;;;5.67;;
8909;SDS011;4490;49.072;8.804;2023-07-02T04:07:56;7.87;;;5.87;;
8909;SDS011;4490;49.072;8.804;2023-07-02T04:10:22;8.07;;;5.03;;
8909;SDS011;4490;49.072;8.804;2023-07-02T04:12:47;9.70;;;5.53;;
8909;SDS011;4490;49.072;8.804;2023-07-02T04:15:13;8.13;;;5.37;;
8909;SDS011;4490;49.072;8.804;2023-07-02T04:17:38;8.77;;;4.83;;
8909;SDS011;4490;49.072;8.804;2023-07-02T04:20:04;10.17;;;5.70;;
8909;SDS011;4490;49.072;8.804;2023-07-02T04:22:32;10.07;;;5.30;;
8909;SDS011;4490;49.072;8.804;2023-07-02T04:24:58;8.60;;;5.33;;
8909;SDS011;4490;49.072;8.804;2023-07-02T04:27:24;7.13;;;5.10;;
8909;SDS011;4490;49.072;8.804;2023-07-02T04:29:49;7.43;;;4.80;;
8909;SDS011;4490;49.072;8.804;2023-07-02T04:32:15;8.47;;;4.47;;
8909;SDS011;4490;49.072;8.804;2023-07-02T04:34:41;8.77;;;4.63;;
8909;SDS011;4490;49.072;8.804;2023-07-02T04:37:06;8.63;;;5.60;;
8909;SDS011;4490;49.072;8.804;2023-07-02T04:39:34;8.40;;;5.00;;
8909;SDS011;4490;49.072;8.804;2023-07-02T04:41:59;8.30;;;4.80;;
8909;SDS011;4490;49.072;8.804;2023-07-02T04:44:25;11.30;;;4.60;;
8909;SDS011;4490;49.072;8.804;2023-07-02T04:46:56;10.43;;;4.10;;
8909;SDS011;4490;49.072;8.804;2023-07-02T04:49:22;10.23;;;4.33;;
8909;SDS011;4490;49.072;8.804;2023-07-02T04:51:48;6.40;;;4.40;;
8909;SDS011;4490;49.072;8.804;2023-07-02T04:54:13;8.90;;;4.80;;
8909;SDS011;4490;49.072;8.804;2023-07-02T04:56:39;4.90;;;3.97;;
8909;SDS011;4490;49.072;8.804;2023-07-02T04:59:04;8.87;;;4.30;;
8909;SDS011;4490;49.072;8.804;2023-07-02T05:01:30;7.03;;;4.03;;
8909;SDS011;4490;49.072;8.804;2023-07-02T05:03:56;7.30;;;4.17;;
8909;SDS011;4490;49.072;8.804;2023-07-02T05:06:21;6.83;;;4.77;;
8909;SDS011;4490;49.072;8.804;2023-07-02T05:08:47;7.23;;;4.40;;
8909;SDS011;4490;49.072;8.804;2023-07-02T05:11:12;8.03;;;5.33;;
8909;SDS011;4490;49.072;8.804;2023-07-02T05:13:38;9.50;;;5.40;;
8909;SDS011;4490;49.072;8.804;2023-07-02T05:16:04;8.47;;;4.70;;
8909;SDS011;4490;49.072;8.804;2023-07-02T05:18:29;6.87;;;4.90;;
8909;SDS011;4490;49.072;8.804;2023-07-02T05:20:55;8.07;;;5.10;;
8909;SDS011;4490;49.072;8.804;2023-07-02T05:23:20;10.10;;;5.80;;
8909;SDS011;4490;49.072;8.804;2023-07-02T05:25:46;7.53;;;5.50;;
8909;SDS011;4490;49.072;8.804;2023-07-02T05:28:12;9.60;;;5.63;;
8909;SDS011;4490;49.072;8.804;2023-07-02T05:30:37;9.67;;;5.70;;
8909;SDS011;4490;49.072;8.804;2023-07-02T05:33:03;10.23;;;6.07;;
8909;SDS011;4490;49.072;8.804;2023-07-02T05:35:28;8.87;;;6.20;;
8909;SDS011;4490;49.072;8.804;2023-07-02T05:37:54;9.63;;;5.97;;
8909;SDS011;4490;49.072;8.804;2023-07-02T05:40:19;9.40;;;6.37;;
8909;SDS011;4490;49.072;8.804;2023-07-02T05:42:45;10.33;;;6.87;;
8909;SDS011;4490;49.072;8.804;2023-07-02T05:45:11;10.10;;;6.37;;
8909;SDS011;4490;49.072;8.804;2023-07-02T05:47:36;11.23;;;6.70;;
8909;SDS011;4490;49.072;8.804;2023-07-02T05:50:02;11.03;;;6.87;;
8909;SDS011;4490;49.072;8.804;2023-07-02T05:52:27;11.60;;;6.67;;
8909;SDS011;4490;49.072;8.804;2023-07-02T05:54:53;11.53;;;6.80;;
8909;SDS011;4490;49.072;8.804;2023-07-02T05:57:19;11.93;;;6.60;;
8909;SDS011;4490;49.072;8.804;2023-07-02T05:59:44;9.60;;;5.97;;
8909;SDS011;4490;49.072;8.804;2023-07-02T06:02:10;11.67;;;6.20;;
8909;SDS011;4490;49.072;8.804;2023-07-02T06:04:35;10.80;;;6.37;;
8909;SDS011;4490;49.072;8.804;2023-07-02T06:07:01;9.50;;;6.07;;
8909;SDS011;4490;49.072;8.804;2023-07-02T06:09:26;10.70;;;6.53;;
8909;SDS011;4490;49.072;8.804;2023-07-02T06:11:52;9.87;;;6.17;;
8909;SDS011;4490;49.072;8.804;2023-07-02T06:14:18;10.60;;;6.60;;
8909;SDS011;4490;49.072;8.804;2023-07-02T06:16:43;13.10;;;7.40;;
8909;SDS011;4490;49.072;8.804;2023-07-02T06:19:09;10.27;;;7.27;;
8909;SDS011;4490;49.072;8.804;2023-07-02T06:21:34;14.57;;;7.73;;
8909;SDS011;4490;49.072;8.804;2023-07-02T06:24:01;11.60;;;7.27;;
8909;SDS011;4490;49.072;8.804;2023-07-02T06:26:27;13.90;;;7.90;;
8909;SDS011;4490;49.072;8.804;2023-07-02T06:28:52;11.33;;;7.73;;
8909;SDS011;4490;49.072;8.804;2023-07-02T06:31:18;13.33;;;7.93;;
8909;SDS011;4490;49.072;8.804;2023-07-02T06:33:44;12.67;;;8.30;;
8909;SDS011;4490;49.072;8.804;2023-07-02T06:36:10;16.23;;;8.23;;
8909;SDS011;4490;49.072;8.804;2023-07-02T06:38:35;10.80;;;7.67;;
8909;SDS011;4490;49.072;8.804;2023-07-02T06:41:01;15.27;;;8.50;;
8909;SDS011;4490;49.072;8.804;2023-07-02T06:43:26;11.67;;;8.33;;
8909;SDS011;4490;49.072;8.804;2023-07-02T06:45:52;11.60;;;7.47;;
8909;SDS011;4490;49.072;8.804;2023-07-02T06:48:18;11.40;;;7.27;;
8909;SDS011;4490;49.072;8.804;2023-07-02T06:50:46;11.77;;;7.67;;
8909;SDS011;4490;49.072;8.804;2023-07-02T06:53:11;13.43;;;7.37;;
8909;SDS011;4490;49.072;8.804;2023-07-02T06:55:37;11.53;;;7.70;;
8909;SDS011;4490;49.072;8.804;2023-07-02T06:58:06;10.10;;;6.67;;
8909;SDS011;4490;49.072;8.804;2023-07-02T07:00:33;12.10;;;6.70;;
8909;SDS011;4490;49.072;8.804;2023-07-02T07:03:02;10.10;;;6.90;;
8909;SDS011;4490;49.072;8.804;2023-07-02T07:05:29;11.97;;;6.83;;
8909;SDS011;4490;49.072;8.804;2023-07-02T07:08:01;11.77;;;7.57;;
8909;SDS011;4490;49.072;8.804;2023-07-02T07:10:26;8.03;;;6.53;;
8909;SDS011;4490;49.072;8.804;2023-07-02T07:12:53;10.07;;;7.00;;
8909;SDS011;4490;49.072;8.804;2023-07-02T07:15:18;13.50;;;7.57;;
8909;SDS011;4490;49.072;8.804;2023-07-02T07:17:44;11.47;;;7.43;;
8909;SDS011;4490;49.072;8.804;2023-07-02T07:20:09;11.70;;;7.00;;
8909;SDS011;4490;49.072;8.804;2023-07-02T07:22:35;12.47;;;7.70;;
8909;SDS011;4490;49.072;8.804;2023-07-02T07:25:01;9.47;;;7.10;;
8909;SDS011;4490;49.072;8.804;2023-07-02T07:27:27;11.37;;;8.23;;
8909;SDS011;4490;49.072;8.804;2023-07-02T07:29:52;13.55;;;8.45;;
8909;SDS011;4490;49.072;8.804;2023-07-02T07:32:19;15.50;;;8.90;;
8909;SDS011;4490;49.072;8.804;2023-07-02T07:34:45;13.32;;;8.38;;
8909;SDS011;4490;49.072;8.804;2023-07-02T07:37:11;13.45;;;9.07;;
8909;SDS011;4490;49.072;8.804;2023-07-02T07:39:37;14.82;;;9.55;;
8909;SDS011;4490;49.072;8.804;2023-07-02T07:42:02;16.40;;;10.48;;
8909;SDS011;4490;49.072;8.804;2023-07-02T07:44:28;15.02;;;10.25;;
8909;SDS011;4490;49.072;8.804;2023-07-02T07:46:57;15.43;;;10.23;;
8909;SDS011;4490;49.072;8.804;2023-07-02T07:49:22;15.52;;;9.95;;
8909;SDS011;4490;49.072;8.804;2023-07-02T07:51:48;19.45;;;11.60;;
8909;SDS011;4490;49.072;8.804;2023-07-02T07:54:14;15.68;;;10.98;;
8909;SDS011;4490;49.072;8.804;2023-07-02T07:56:39;19.25;;;10.98;;
8909;SDS011;4490;49.072;8.804;2023-07-02T07:59:05;17.73;;;11.35;;
8909;SDS011;4490;49.072;8.804;2023-07-02T08:01:30;17.83;;;12.00;;
8909;SDS011;4490;49.072;8.804;2023-07-02T08:03:56;17.48;;;11.43;;
8909;SDS011;4490;49.072;8.804;2023-07-02T08:06:22;18.92;;;12.13;;
8909;SDS011;4490;49.072;8.804;2023-07-02T08:08:47;19.92;;;12.80;;
8909;SDS011;4490;49.072;8.804;2023-07-02T08:11:13;20.25;;;13.27;;
8909;SDS011;4490;49.072;8.804;2023-07-02T08:13:38;20.30;;;13.48;;
8909;SDS011;4490;49.072;8.804;2023-07-02T08:16:04;21.25;;;13.93;;
8909;SDS011;4490;49.072;8.804;2023-07-02T08:18:30;20.65;;;13.00;;
8909;SDS011;4490;49.072;8.804;2023-07-02T08:20:55;19.73;;;12.43;;
8909;SDS011;4490;49.072;8.804;2023-07-02T08:23:21;28.15;;;14.60;;
8909;SDS011;4490;49.072;8.804;2023-07-02T08:25:47;21.15;;;13.38;;
8909;SDS011;4490;49.072;8.804;2023-07-02T08:28:12;23.02;;;13.93;;
8909;SDS011;4490;49.072;8.804;2023-07-02T08:30:38;23.25;;;14.55;;
8909;SDS011;4490;49.072;8.804;2023-07-02T08:33:03;19.42;;;13.32;;
8909;SDS011;4490;49.072;8.804;2023-07-02T08:35:29;23.83;;;14.48;;
8909;SDS011;4490;49.072;8.804;2023-07-02T08:37:55;24.90;;;14.57;;
8909;SDS011;4490;49.072;8.804;2023-07-02T08:40:21;23.23;;;14.93;;
8909;SDS011;4490;49.072;8.804;2023-07-02T08:42:47;24.90;;;15.63;;
8909;SDS011;4490;49.072;8.804;2023-07-02T08:45:14;26.98;;;15.18;;
8909;SDS011;4490;49.072;8.804;2023-07-02T08:47:44;24.52;;;14.95;;
8909;SDS011;4490;49.072;8.804;2023-07-02T08:50:13;23.42;;;14.27;;
8909;SDS011;4490;49.072;8.804;2023-07-02T08:52:39;28.27;;;16.17;;
8909;SDS011;4490;49.072;8.804;2023-07-02T08:55:04;26.42;;;15.63;;
8909;SDS011;4490;49.072;8.804;2023-07-02T08:57:30;23.50;;;15.45;;
8909;SDS011;4490;49.072;8.804;2023-07-02T08:59:56;24.15;;;15.77;;
8909;SDS011;4490;49.072;8.804;2023-07-02T09:02:34;23.63;;;15.15;;
8909;SDS011;4490;49.072;8.804;2023-07-02T09:05:00;26.38;;;15.93;;
8909;SDS011;4490;49.072;8.804;2023-07-02T09:07:26;26.17;;;16.73;;
8909;SDS011;4490;49.072;8.804;2023-07-02T09:09:52;25.17;;;16.10;;
8909;SDS011;4490;49.072;8.804;2023-07-02T09:17:26;27.08;;;15.93;;
8909;SDS011;4490;49.072;8.804;2023-07-02T09:19:56;21.50;;;15.30;;
8909;SDS011;4490;49.072;8.804;2023-07-02T09:22:25;23.08;;;15.48;;
8909;SDS011;4490;49.072;8.804;2023-07-02T09:24:55;27.23;;;16.33;;
8909;SDS011;4490;49.072;8.804;2023-07-02T09:27:32;23.98;;;15.60;;
8909;SDS011;4490;49.072;8.804;2023-07-02T09:30:07;22.42;;;15.68;;
8909;SDS011;4490;49.072;8.804;2023-07-02T09:32:34;23.42;;;15.75;;
8909;SDS011;4490;49.072;8.804;2023-07-02T09:34:59;24.58;;;15.63;;
8909;SDS011;4490;49.072;8.804;2023-07-02T09:37:25;24.60;;;16.25;;
8909;SDS011;4490;49.072;8.804;2023-07-02T09:39:52;23.75;;;15.30;;
8909;SDS011;4490;49.072;8.804;2023-07-02T09:42:20;26.70;;;16.35;;
8909;SDS011;4490;49.072;8.804;2023-07-02T09:44:46;25.30;;;15.20;;
8909;SDS011;4490;49.072;8.804;2023-07-02T09:47:13;25.98;;;15.52;;
8909;SDS011;4490;49.072;8.804;2023-07-02T09:49:49;22.58;;;16.92;;
8909;SDS011;4490;49.072;8.804;2023-07-02T09:52:19;23.25;;;16.23;;
8909;SDS011;4490;49.072;8.804;2023-07-02T09:54:45;24.08;;;15.15;;
8909;SDS011;4490;49.072;8.804;2023-07-02T09:57:11;22.38;;;15.55;;
8909;SDS011;4490;49.072;8.804;2023-07-02T09:59:37;24.58;;;15.80;;
8909;SDS011;4490;49.072;8.804;2023-07-02T10:02:04;27.70;;;16.63;;
8909;SDS011;4490;49.072;8.804;2023-07-02T10:04:51;24.70;;;16.48;;
8909;SDS011;4490;49.072;8.804;2023-07-02T10:07:29;22.50;;;16.15;;
8909;SDS011;4490;49.072;8.804;2023-07-02T10:09:57;25.52;;;16.63;;
8909;SDS011;4490;49.072;8.804;2023-07-02T10:12:24;23.80;;;17.13;;
8909;SDS011;4490;49.072;8.804;2023-07-02T10:14:51;24.17;;;16.60;;
8909;SDS011;4490;49.072;8.804;2023-07-02T10:17:26;24.02;;;15.80;;
8909;SDS011;4490;49.072;8.804;2023-07-02T10:19:55;21.92;;;16.20;;
8909;SDS011;4490;49.072;8.804;2023-07-02T10:22:22;23.40;;;15.13;;
8909;SDS011;4490;49.072;8.804;2023-07-02T10:24:52;22.08;;;15.50;;
8909;SDS011;4490;49.072;8.804;2023-07-02T10:27:37;25.50;;;16.63;;
8909;SDS011;4490;49.072;8.804;2023-07-02T10:30:05;24.73;;;17.05;;
8909;SDS011;4490;49.072;8.804;2023-07-02T10:32:32;22.00;;;16.40;;
8909;SDS011;4490;49.072;8.804;2023-07-02T10:34:59;23.52;;;16.10;;
8909;SDS011;4490;49.072;8.804;2023-07-02T10:37:34;23.23;;;15.73;;
8909;SDS011;4490;49.072;8.804;2023-07-02T10:40:06;20.60;;;15.75;;
8909;SDS011;4490;49.072;8.804;2023-07-02T10:42:32;23.77;;;16.17;;
8909;SDS011;4490;49.072;8.804;2023-07-02T10:44:59;24.42;;;16.17;;
8909;SDS011;4490;49.072;8.804;2023-07-02T10:47:25;24.63;;;16.63;;
8909;SDS011;4490;49.072;8.804;2023-07-02T10:49:50;24.38;;;16.10;;
8909;SDS011;4490;49.072;8.804;2023-07-02T10:52:16;22.55;;;16.05;;
8909;SDS011;4490;49.072;8.804;2023-07-02T10:54:42;25.08;;;16.60;;
8909;SDS011;4490;49.072;8.804;2023-07-02T10:57:10;24.05;;;16.33;;
8909;SDS011;4490;49.072;8.804;2023-07-02T10:59:38;24.98;;;16.13;;
8909;SDS011;4490;49.072;8.804;2023-07-02T11:02:03;24.70;;;16.67;;
8909;SDS011;4490;49.072;8.804;2023-07-02T11:04:32;24.05;;;16.17;;
8909;SDS011;4490;49.072;8.804;2023-07-02T11:06:59;23.90;;;15.70;;
8909;SDS011;4490;49.072;8.804;2023-07-02T11:09:27;27.45;;;16.60;;
8909;SDS011;4490;49.072;8.804;2023-07-02T11:11:53;23.88;;;15.38;;
8909;SDS011;4490;49.072;8.804;2023-07-02T11:14:27;22.73;;;15.55;;
8909;SDS011;4490;49.072;8.804;2023-07-02T11:16:56;25.83;;;15.85;;
8909;SDS011;4490;49.072;8.804;2023-07-02T11:19:23;24.80;;;15.77;;
8909;SDS011;4490;49.072;8.804;2023-07-02T11:21:52;24.33;;;16.35;;
8909;SDS011;4490;49.072;8.804;2023-07-02T11:24:27;24.15;;;15.45;;
8909;SDS011;4490;49.072;8.804;2023-07-02T11:26:56;23.42;;;16.60;;
8909;SDS011;4490;49.072;8.804;2023-07-02T11:29:22;21.70;;;15.57;;
8909;SDS011;4490;49.072;8.804;2023-07-02T11:31:48;21.20;;;15.02;;
8909;SDS011;4490;49.072;8.804;2023-07-02T11:34:14;19.80;;;14.48;;
8909;SDS011;4490;49.072;8.804;2023-07-02T11:36:41;22.77;;;15.48;;
8909;SDS011;4490;49.072;8.804;2023-07-02T11:39:06;24.00;;;15.50;;
8909;SDS011;4490;49.072;8.804;2023-07-02T11:41:38;18.98;;;14.40;;
8909;SDS011;4490;49.072;8.804;2023-07-02T11:44:05;21.65;;;14.77;;
8909;SDS011;4490;49.072;8.804;2023-07-02T11:46:31;21.52;;;15.90;;
8909;SDS011;4490;49.072;8.804;2023-07-02T11:48:57;21.60;;;16.20;;
8909;SDS011;4490;49.072;8.804;2023-07-02T11:51:25;22.98;;;16.52;;
8909;SDS011;4490;49.072;8.804;2023-07-02T11:53:50;24.88;;;16.55;;
8909;SDS011;4490;49.072;8.804;2023-07-02T11:56:16;27.55;;;16.45;;
8909;SDS011;4490;49.072;8.804;2023-07-02T11:58:41;23.15;;;16.15;;
8909;SDS011;4490;49.072;8.804;2023-07-02T12:01:08;21.15;;;15.23;;
8909;SDS011;4490;49.072;8.804;2023-07-02T12:03:33;18.77;;;14.65;;
8909;SDS011;4490;49.072;8.804;2023-07-02T12:05:59;25.95;;;15.70;;
8909;SDS011;4490;49.072;8.804;2023-07-02T12:08:25;21.75;;;16.20;;
8909;SDS011;4490;49.072;8.804;2023-07-02T12:10:51;20.45;;;15.27;;
8909;SDS011;4490;49.072;8.804;2023-07-02T12:13:16;25.27;;;15.30;;
8909;SDS011;4490;49.072;8.804;2023-07-02T12:15:42;20.65;;;15.30;;
8909;SDS011;4490;49.072;8.804;2023-07-02T12:18:08;21.05;;;15.18;;
8909;SDS011;4490;49.072;8.804;2023-07-02T12:20:34;21.65;;;15.35;;
8909;SDS011;4490;49.072;8.804;2023-07-02T12:23:00;22.55;;;16.67;;
8909;SDS011;4490;49.072;8.804;2023-07-02T12:25:26;21.95;;;15.35;;
8909;SDS011;4490;49.072;8.804;2023-07-02T12:27:52;22.00;;;16.33;;
8909;SDS011;4490;49.072;8.804;2023-07-02T12:30:18;19.65;;;15.13;;
8909;SDS011;4490;49.072;8.804;2023-07-02T12:32:44;24.15;;;16.35;;
8909;SDS011;4490;49.072;8.804;2023-07-02T12:35:10;20.33;;;15.43;;
8909;SDS011;4490;49.072;8.804;2023-07-02T12:37:46;19.95;;;14.07;;
8909;SDS011;4490;49.072;8.804;2023-07-02T12:40:13;20.85;;;14.38;;
8909;SDS011;4490;49.072;8.804;2023-07-02T12:42:42;20.20;;;14.75;;
8909;SDS011;4490;49.072;8.804;2023-07-02T12:45:09;19.67;;;14.52;;
8909;SDS011;4490;49.072;8.804;2023-07-02T12:47:36;20.20;;;14.82;;
8909;SDS011;4490;49.072;8.804;2023-07-02T12:50:02;22.45;;;16.05;;
8909;SDS011;4490;49.072;8.804;2023-07-02T12:52:29;20.85;;;15.68;;
8909;SDS011;4490;49.072;8.804;2023-07-02T12:54:55;23.33;;;16.73;;
8909;SDS011;4490;49.072;8.804;2023-07-02T12:57:20;22.67;;;16.02;;
8909;SDS011;4490;49.072;8.804;2023-07-02T12:59:46;21.33;;;15.73;;
8909;SDS011;4490;49.072;8.804;2023-07-02T13:02:11;20.83;;;15.45;;
8909;SDS011;4490;49.072;8.804;2023-07-02T13:04:37;21.13;;;15.07;;
8909;SDS011;4490;49.072;8.804;2023-07-02T13:07:03;20.90;;;14.90;;
8909;SDS011;4490;49.072;8.804;2023-07-02T13:09:29;21.10;;;15.90;;
8909;SDS011;4490;49.072;8.804;2023-07-02T13:11:55;22.45;;;15.57;;
8909;SDS011;4490;49.072;8.804;2023-07-02T13:14:20;21.42;;;15.13;;
8909;SDS011;4490;49.072;8.804;2023-07-02T13:16:46;18.27;;;14.30;;
8909;SDS011;4490;49.072;8.804;2023-07-02T13:19:12;20.38;;;15.27;;
8909;SDS011;4490;49.072;8.804;2023-07-02T13:21:38;18.38;;;13.60;;
8909;SDS011;4490;49.072;8.804;2023-07-02T13:24:04;17.95;;;13.48;;
8909;SDS011;4490;49.072;8.804;2023-07-02T13:26:30;18.13;;;13.77;;
8909;SDS011;4490;49.072;8.804;2023-07-02T13:28:55;18.55;;;14.00;;
8909;SDS011;4490;49.072;8.804;2023-07-02T13:31:21;21.95;;;16.13;;
8909;SDS011;4490;49.072;8.804;2023-07-02T13:33:47;21.10;;;15.05;;
8909;SDS011;4490;49.072;8.804;2023-07-02T13:36:14;18.13;;;13.93;;
8909;SDS011;4490;49.072;8.804;2023-07-02T13:38:40;18.30;;;14.57;;
8909;SDS011;4490;49.072;8.804;2023-07-02T13:41:05;21.50;;;15.07;;
8909;SDS011;4490;49.072;8.804;2023-07-02T13:43:31;22.27;;;15.00;;
8909;SDS011;4490;49.072;8.804;2023-07-02T13:45:57;19.42;;;14.90;;
8909;SDS011;4490;49.072;8.804;2023-07-02T13:48:22;19.27;;;13.48;;
8909;SDS011;4490;49.072;8.804;2023-07-02T13:50:48;23.60;;;15.13;;
8909;SDS011;4490;49.072;8.804;2023-07-02T13:53:14;17.52;;;13.02;;
8909;SDS011;4490;49.072;8.804;2023-07-02T13:55:39;18.23;;;13.73;;
8909;SDS011;4490;49.072;8.804;2023-07-02T13:58:05;17.65;;;13.70;;
8909;SDS011;4490;49.072;8.804;2023-07-02T14:00:31;20.25;;;13.02;;
8909;SDS011;4490;49.072;8.804;2023-07-02T14:02:56;21.95;;;13.23;;
8909;SDS011;4490;49.072;8.804;2023-07-02T14:05:23;16.65;;;12.98;;
8909;SDS011;4490;49.072;8.804;2023-07-02T14:07:48;16.17;;;12.85;;
8909;SDS011;4490;49.072;8.804;2023-07-02T14:10:14;19.85;;;12.82;;
8909;SDS011;4490;49.072;8.804;2023-07-02T14:12:40;17.73;;;12.65;;
8909;SDS011;4490;49.072;8.804;2023-07-02T14:15:07;18.73;;;13.35;;
8909;SDS011;4490;49.072;8.804;2023-07-02T14:17:33;17.27;;;13.55;;
8909;SDS011;4490;49.072;8.804;2023-07-02T14:19:59;17.77;;;13.48;;
8909;SDS011;4490;49.072;8.804;2023-07-02T14:22:25;18.50;;;12.93;;
8909;SDS011;4490;49.072;8.804;2023-07-02T14:24:50;19.20;;;13.65;;
8909;SDS011;4490;49.072;8.804;2023-07-02T14:27:16;19.52;;;13.70;;
8909;SDS011;4490;49.072;8.804;2023-07-02T14:29:42;19.85;;;13.15;;
8909;SDS011;4490;49.072;8.804;2023-07-02T14:32:08;21.58;;;13.88;;
8909;SDS011;4490;49.072;8.804;2023-07-02T14:34:33;17.17;;;12.95;;
8909;SDS011;4490;49.072;8.804;2023-07-02T14:36:59;20.33;;;12.98;;
8909;SDS011;4490;49.072;8.804;2023-07-02T14:39:26;19.77;;;13.75;;
8909;SDS011;4490;49.072;8.804;2023-07-02T14:41:52;16.58;;;12.98;;
8909;SDS011;4490;49.072;8.804;2023-07-02T14:44:18;18.00;;;13.27;;
8909;SDS011;4490;49.072;8.804;2023-07-02T14:46:43;18.70;;;13.00;;
8909;SDS011;4490;49.072;8.804;2023-07-02T14:49:09;20.20;;;13.48;;
8909;SDS011;4490;49.072;8.804;2023-07-02T14:51:35;15.88;;;12.75;;
8909;SDS011;4490;49.072;8.804;2023-07-02T14:54:00;16.55;;;12.73;;
8909;SDS011;4490;49.072;8.804;2023-07-02T14:56:28;20.38;;;13.63;;
8909;SDS011;4490;49.072;8.804;2023-07-02T14:58:54;16.75;;;11.80;;